sensor_id;sensor_type;location;lat;lon;timestamp;pressure;altitude;pressure_sealevel;temperature;humidity
48892;BME280;50130;52.150;5.236;2023-02-22T00:01:18;101392.0;;;8.73;92.92
48892;BME280;50130;52.150;5.236;2023-02-22T00:02:58;101394.0;;;8.83;93.0
48892;BME280;50130;52.150;5.236;2023-02-22T00:06:16;101389.0;;;8.66;93.57
48892;BME280;50130;52.150;5.236;2023-02-22T00:07:56;101386.0;;;8.65;93.8
48892;BME280;50130;52.150;5.236;2023-02-22T00:09:33;101388.0;;;8.72;93.91
48892;BME280;50130;52.150;5.236;2023-02-22T00:11:10;101391.0;;;8.66;94.03
48892;BME280;50130;52.150;5.236;2023-02-22T00:14:26;101387.0;;;8.8;93.48
48892;BME280;50130;52.150;5.236;2023-02-22T00:16:03;101388.0;;;8.68;93.14
48892;BME280;50130;52.150;5.236;2023-02-22T00:17:40;101389.0;;;8.75;92.87
48892;BME280;50130;52.150;5.236;2023-02-22T00:20:54;101390.0;;;8.73;93.6
48892;BME280;50130;52.150;5.236;2023-02-22T00:22:31;101386.0;;;8.64;93.36
48892;BME280;50130;52.150;5.236;2023-02-22T00:24:22;101388.0;;;8.64;93.27
48892;BME280;50130;52.150;5.236;2023-02-22T00:25:58;101392.0;;;8.66;92.66
48892;BME280;50130;52.150;5.236;2023-02-22T00:29:11;101393.0;;;8.56;93.05
48892;BME280;50130;52.150;5.236;2023-02-22T00:30:48;101394.0;;;8.56;93.53
48892;BME280;50130;52.150;5.236;2023-02-22T00:32:25;101394.0;;;8.64;93.07
48892;BME280;50130;52.150;5.236;2023-02-22T00:35:37;101393.0;;;8.64;93.21
48892;BME280;50130;52.150;5.236;2023-02-22T00:37:14;101388.0;;;8.61;93.07
48892;BME280;50130;52.150;5.236;2023-02-22T00:38:50;101390.0;;;8.59;94.07
48892;BME280;50130;52.150;5.236;2023-02-22T00:40:28;101385.0;;;8.68;93.28
48892;BME280;50130;52.150;5.236;2023-02-22T00:43:43;101380.0;;;8.72;93.22
48892;BME280;50130;52.150;5.236;2023-02-22T00:45:21;101382.0;;;8.73;92.77
48892;BME280;50130;52.150;5.236;2023-02-22T00:46:59;101380.0;;;8.75;91.7
48892;BME280;50130;52.150;5.236;2023-02-22T00:50:12;101372.0;;;8.77;92.28
48892;BME280;50130;52.150;5.236;2023-02-22T00:51:50;101368.0;;;8.69;93.22
48892;BME280;50130;52.150;5.236;2023-02-22T00:53:27;101363.0;;;8.59;93.37
48892;BME280;50130;52.150;5.236;2023-02-22T00:56:44;101364.0;;;8.57;93.26
48892;BME280;50130;52.150;5.236;2023-02-22T00:58:21;101363.0;;;8.55;93.94
48892;BME280;50130;52.150;5.236;2023-02-22T00:59:57;101359.0;;;8.56;94.0
48892;BME280;50130;52.150;5.236;2023-02-22T01:01:33;101361.0;;;8.53;94.84
48892;BME280;50130;52.150;5.236;2023-02-22T01:04:52;101355.0;;;8.52;95.03
48892;BME280;50130;52.150;5.236;2023-02-22T01:06:28;101358.0;;;8.47;94.91
48892;BME280;50130;52.150;5.236;2023-02-22T01:08:07;101346.0;;;8.53;94.16
48892;BME280;50130;52.150;5.236;2023-02-22T01:09:44;101347.0;;;8.45;94.61
48892;BME280;50130;52.150;5.236;2023-02-22T01:12:58;101348.0;;;8.51;94.25
48892;BME280;50130;52.150;5.236;2023-02-22T01:14:36;101348.0;;;8.6;93.76
48892;BME280;50130;52.150;5.236;2023-02-22T01:16:12;101348.0;;;8.63;93.65
48892;BME280;50130;52.150;5.236;2023-02-22T01:19:27;101343.0;;;8.61;93.64
48892;BME280;50130;52.150;5.236;2023-02-22T01:21:04;101349.0;;;8.64;93.02
48892;BME280;50130;52.150;5.236;2023-02-22T01:22:43;101349.0;;;8.58;92.95
48892;BME280;50130;52.150;5.236;2023-02-22T01:25:57;101349.0;;;8.57;93.01
48892;BME280;50130;52.150;5.236;2023-02-22T01:27:34;101345.0;;;8.56;93.19
48892;BME280;50130;52.150;5.236;2023-02-22T01:29:15;101346.0;;;8.48;93.45
48892;BME280;50130;52.150;5.236;2023-02-22T01:30:55;101347.0;;;8.42;93.05
48892;BME280;50130;52.150;5.236;2023-02-22T01:34:12;101343.0;;;8.47;93.32
48892;BME280;50130;52.150;5.236;2023-02-22T01:35:50;101344.0;;;8.53;93.46
48892;BME280;50130;52.150;5.236;2023-02-22T01:37:26;101347.0;;;8.58;92.75
48892;BME280;50130;52.150;5.236;2023-02-22T01:39:02;101344.0;;;8.66;92.05
48892;BME280;50130;52.150;5.236;2023-02-22T01:42:17;101336.0;;;8.59;92.34
48892;BME280;50130;52.150;5.236;2023-02-22T01:43:53;101337.0;;;8.55;92.23
48892;BME280;50130;52.150;5.236;2023-02-22T01:45:41;101337.0;;;8.63;92.23
48892;BME280;50130;52.150;5.236;2023-02-22T01:47:39;101341.0;;;8.59;91.86
48892;BME280;50130;52.150;5.236;2023-02-22T01:50:55;101336.0;;;8.45;92.44
48892;BME280;50130;52.150;5.236;2023-02-22T01:52:34;101327.0;;;8.44;92.8
48892;BME280;50130;52.150;5.236;2023-02-22T01:54:15;101325.0;;;8.45;92.54
48892;BME280;50130;52.150;5.236;2023-02-22T01:55:55;101320.0;;;8.38;93.02
48892;BME280;50130;52.150;5.236;2023-02-22T01:59:12;101321.0;;;8.56;92.1
48892;BME280;50130;52.150;5.236;2023-02-22T02:00:49;101316.0;;;8.48;92.04
48892;BME280;50130;52.150;5.236;2023-02-22T02:02:26;101311.0;;;8.45;92.26
48892;BME280;50130;52.150;5.236;2023-02-22T02:05:47;101310.0;;;8.38;92.75
48892;BME280;50130;52.150;5.236;2023-02-22T02:07:25;101306.0;;;8.3;93.21
48892;BME280;50130;52.150;5.236;2023-02-22T02:09:08;101302.0;;;8.3;92.49
48892;BME280;50130;52.150;5.236;2023-02-22T02:10:47;101303.0;;;8.42;92.13
48892;BME280;50130;52.150;5.236;2023-02-22T02:14:06;101307.0;;;8.42;92.35
48892;BME280;50130;52.150;5.236;2023-02-22T02:15:43;101300.0;;;8.39;92.62
48892;BME280;50130;52.150;5.236;2023-02-22T02:17:21;101302.0;;;8.42;92.59
48892;BME280;50130;52.150;5.236;2023-02-22T02:18:58;101297.0;;;8.3;92.19
48892;BME280;50130;52.150;5.236;2023-02-22T02:22:39;101297.0;;;8.34;92.02
48892;BME280;50130;52.150;5.236;2023-02-22T02:24:34;101292.0;;;8.28;91.28
48892;BME280;50130;52.150;5.236;2023-02-22T02:27:16;101293.0;;;8.31;90.68
48892;BME280;50130;52.150;5.236;2023-02-22T02:29:17;101289.0;;;8.16;91.52
48892;BME280;50130;52.150;5.236;2023-02-22T02:32:51;101286.0;;;8.19;90.89
48892;BME280;50130;52.150;5.236;2023-02-22T02:34:34;101282.0;;;8.06;91.61
48892;BME280;50130;52.150;5.236;2023-02-22T02:36:19;101281.0;;;8.22;91.25
48892;BME280;50130;52.150;5.236;2023-02-22T02:38:04;101271.0;;;7.92;92.2
48892;BME280;50130;52.150;5.236;2023-02-22T02:39:50;101269.0;;;7.82;92.51
48892;BME280;50130;52.150;5.236;2023-02-22T02:43:17;101270.0;;;8.03;91.7
48892;BME280;50130;52.150;5.236;2023-02-22T02:45:08;101269.0;;;8.05;92.09
48892;BME280;50130;52.150;5.236;2023-02-22T02:46:50;101260.0;;;8.01;91.6
48892;BME280;50130;52.150;5.236;2023-02-22T02:48:32;101264.0;;;8.09;91.23
48892;BME280;50130;52.150;5.236;2023-02-22T02:50:15;101260.0;;;7.99;91.22
48892;BME280;50130;52.150;5.236;2023-02-22T02:53:35;101262.0;;;7.8;91.08
48892;BME280;50130;52.150;5.236;2023-02-22T02:55:13;101258.0;;;7.94;91.13
48892;BME280;50130;52.150;5.236;2023-02-22T02:56:52;101255.0;;;7.89;91.38
48892;BME280;50130;52.150;5.236;2023-02-22T02:58:30;101253.0;;;7.87;91.56
48892;BME280;50130;52.150;5.236;2023-02-22T03:02:15;101249.0;;;7.92;91.44
48892;BME280;50130;52.150;5.236;2023-02-22T03:04:25;101249.0;;;7.75;91.82
48892;BME280;50130;52.150;5.236;2023-02-22T03:06:16;101247.0;;;7.87;91.56
48892;BME280;50130;52.150;5.236;2023-02-22T03:08:20;101245.0;;;7.84;91.03
48892;BME280;50130;52.150;5.236;2023-02-22T03:10:13;101249.0;;;7.68;92.41
48892;BME280;50130;52.150;5.236;2023-02-22T03:12:11;101241.0;;;7.58;92.71
48892;BME280;50130;52.150;5.236;2023-02-22T03:14:01;101245.0;;;7.57;92.61
48892;BME280;50130;52.150;5.236;2023-02-22T03:15:49;101245.0;;;7.56;92.86
48892;BME280;50130;52.150;5.236;2023-02-22T03:17:37;101247.0;;;7.53;92.5
48892;BME280;50130;52.150;5.236;2023-02-22T03:21:08;101242.0;;;7.44;92.98
48892;BME280;50130;52.150;5.236;2023-02-22T03:22:57;101236.0;;;7.5;92.83
48892;BME280;50130;52.150;5.236;2023-02-22T03:24:41;101236.0;;;7.48;93.61
48892;BME280;50130;52.150;5.236;2023-02-22T03:26:26;101233.0;;;7.42;93.75
48892;BME280;50130;52.150;5.236;2023-02-22T03:28:14;101230.0;;;7.48;93.43
48892;BME280;50130;52.150;5.236;2023-02-22T03:29:54;101232.0;;;7.6;92.18
48892;BME280;50130;52.150;5.236;2023-02-22T03:33:24;101228.0;;;7.61;92.16
48892;BME280;50130;52.150;5.236;2023-02-22T03:35:05;101231.0;;;7.58;91.46
48892;BME280;50130;52.150;5.236;2023-02-22T03:36:45;101225.0;;;7.52;91.51
48892;BME280;50130;52.150;5.236;2023-02-22T03:38:27;101225.0;;;7.46;92.43
48892;BME280;50130;52.150;5.236;2023-02-22T03:41:55;101224.0;;;7.56;91.98
48892;BME280;50130;52.150;5.236;2023-02-22T03:43:36;101221.0;;;7.48;92.72
48892;BME280;50130;52.150;5.236;2023-02-22T03:45:18;101216.0;;;7.44;92.6
48892;BME280;50130;52.150;5.236;2023-02-22T03:46:59;101216.0;;;7.51;92.45
48892;BME280;50130;52.150;5.236;2023-02-22T03:50:25;101211.0;;;7.53;92.42
48892;BME280;50130;52.150;5.236;2023-02-22T03:52:07;101207.0;;;7.41;92.76
48892;BME280;50130;52.150;5.236;2023-02-22T03:53:45;101209.0;;;7.39;92.88
48892;BME280;50130;52.150;5.236;2023-02-22T03:55:22;101208.0;;;7.42;92.99
48892;BME280;50130;52.150;5.236;2023-02-22T03:58:48;101206.0;;;7.4;92.7
48892;BME280;50130;52.150;5.236;2023-02-22T04:00:28;101205.0;;;7.42;93.01
48892;BME280;50130;52.150;5.236;2023-02-22T04:02:05;101205.0;;;7.38;93.36
48892;BME280;50130;52.150;5.236;2023-02-22T04:03:42;101203.0;;;7.47;93.08
48892;BME280;50130;52.150;5.236;2023-02-22T04:06:56;101198.0;;;7.43;93.49
48892;BME280;50130;52.150;5.236;2023-02-22T04:08:32;101194.0;;;7.31;94.33
48892;BME280;50130;52.150;5.236;2023-02-22T04:10:12;101187.0;;;7.17;95.11
48892;BME280;50130;52.150;5.236;2023-02-22T04:11:51;101182.0;;;7.16;94.97
48892;BME280;50130;52.150;5.236;2023-02-22T04:15:06;101184.0;;;7.23;94.49
48892;BME280;50130;52.150;5.236;2023-02-22T04:16:43;101186.0;;;7.18;94.41
48892;BME280;50130;52.150;5.236;2023-02-22T04:18:19;101180.0;;;7.27;94.02
48892;BME280;50130;52.150;5.236;2023-02-22T04:21:33;101178.0;;;7.23;94.29
48892;BME280;50130;52.150;5.236;2023-02-22T04:23:10;101173.0;;;7.19;94.93
48892;BME280;50130;52.150;5.236;2023-02-22T04:24:48;101176.0;;;7.19;94.66
48892;BME280;50130;52.150;5.236;2023-02-22T04:26:24;101171.0;;;7.23;95.18
48892;BME280;50130;52.150;5.236;2023-02-22T04:29:38;101169.0;;;7.17;94.91
48892;BME280;50130;52.150;5.236;2023-02-22T04:31:15;101169.0;;;7.14;95.32
48892;BME280;50130;52.150;5.236;2023-02-22T04:32:52;101169.0;;;7.1;95.6
48892;BME280;50130;52.150;5.236;2023-02-22T04:36:04;101163.0;;;7.11;95.78
48892;BME280;50130;52.150;5.236;2023-02-22T04:37:41;101163.0;;;6.98;96.78
48892;BME280;50130;52.150;5.236;2023-02-22T04:39:17;101160.0;;;6.97;96.85
48892;BME280;50130;52.150;5.236;2023-02-22T04:42:29;101162.0;;;7.01;96.35
48892;BME280;50130;52.150;5.236;2023-02-22T04:44:06;101156.0;;;7.03;96.16
48892;BME280;50130;52.150;5.236;2023-02-22T04:45:42;101153.0;;;6.98;96.8
48892;BME280;50130;52.150;5.236;2023-02-22T04:47:18;101150.0;;;7.12;96.28
48892;BME280;50130;52.150;5.236;2023-02-22T04:50:30;101144.0;;;6.97;96.87
48892;BME280;50130;52.150;5.236;2023-02-22T04:52:06;101144.0;;;6.9;97.5
48892;BME280;50130;52.150;5.236;2023-02-22T04:53:43;101141.0;;;6.87;97.72
48892;BME280;50130;52.150;5.236;2023-02-22T04:56:56;101130.0;;;6.68;98.41
48892;BME280;50130;52.150;5.236;2023-02-22T04:58:33;101140.0;;;6.73;98.42
48892;BME280;50130;52.150;5.236;2023-02-22T05:00:14;101134.0;;;7.0;97.46
48892;BME280;50130;52.150;5.236;2023-02-22T05:03:28;101137.0;;;7.07;96.97
48892;BME280;50130;52.150;5.236;2023-02-22T05:05:05;101140.0;;;7.08;96.84
48892;BME280;50130;52.150;5.236;2023-02-22T05:06:42;101134.0;;;6.96;97.08
48892;BME280;50130;52.150;5.236;2023-02-22T05:08:18;101136.0;;;6.96;97.28
48892;BME280;50130;52.150;5.236;2023-02-22T05:11:30;101133.0;;;7.09;96.92
48892;BME280;50130;52.150;5.236;2023-02-22T05:13:06;101125.0;;;7.11;97.09
48892;BME280;50130;52.150;5.236;2023-02-22T05:14:43;101125.0;;;7.23;96.25
48892;BME280;50130;52.150;5.236;2023-02-22T05:17:56;101122.0;;;7.24;95.52
48892;BME280;50130;52.150;5.236;2023-02-22T05:19:32;101121.0;;;7.37;95.61
48892;BME280;50130;52.150;5.236;2023-02-22T05:21:08;101119.0;;;7.22;95.57
48892;BME280;50130;52.150;5.236;2023-02-22T05:24:21;101114.0;;;7.21;95.62
48892;BME280;50130;52.150;5.236;2023-02-22T05:25:58;101105.0;;;6.99;96.77
48892;BME280;50130;52.150;5.236;2023-02-22T05:27:33;101108.0;;;7.05;97.11
48892;BME280;50130;52.150;5.236;2023-02-22T05:29:10;101107.0;;;7.14;96.49
48892;BME280;50130;52.150;5.236;2023-02-22T05:32:23;101108.0;;;7.15;96.48
48892;BME280;50130;52.150;5.236;2023-02-22T05:33:59;101109.0;;;7.11;96.15
48892;BME280;50130;52.150;5.236;2023-02-22T05:35:36;101108.0;;;7.01;96.66
48892;BME280;50130;52.150;5.236;2023-02-22T05:38:48;101110.0;;;7.06;96.61
48892;BME280;50130;52.150;5.236;2023-02-22T05:40:25;101107.0;;;7.1;96.72
48892;BME280;50130;52.150;5.236;2023-02-22T05:42:03;101108.0;;;7.12;96.55
48892;BME280;50130;52.150;5.236;2023-02-22T05:45:18;101110.0;;;7.18;96.86
48892;BME280;50130;52.150;5.236;2023-02-22T05:46:55;101106.0;;;7.14;96.84
48892;BME280;50130;52.150;5.236;2023-02-22T05:48:32;101107.0;;;7.05;97.07
48892;BME280;50130;52.150;5.236;2023-02-22T05:50:09;101110.0;;;7.01;97.18
48892;BME280;50130;52.150;5.236;2023-02-22T05:53:23;101105.0;;;7.0;97.39
48892;BME280;50130;52.150;5.236;2023-02-22T05:54:59;101105.0;;;6.92;97.87
48892;BME280;50130;52.150;5.236;2023-02-22T05:56:35;101101.0;;;6.87;98.46
48892;BME280;50130;52.150;5.236;2023-02-22T05:59:48;101097.0;;;6.98;98.3
48892;BME280;50130;52.150;5.236;2023-02-22T06:01:25;101094.0;;;6.93;98.11
48892;BME280;50130;52.150;5.236;2023-02-22T06:03:04;101095.0;;;6.94;98.55
48892;BME280;50130;52.150;5.236;2023-02-22T06:04:43;101090.0;;;6.94;98.47
48892;BME280;50130;52.150;5.236;2023-02-22T06:07:56;101083.0;;;7.07;98.34
48892;BME280;50130;52.150;5.236;2023-02-22T06:09:32;101082.0;;;7.04;98.2
48892;BME280;50130;52.150;5.236;2023-02-22T06:11:09;101076.0;;;7.02;98.29
48892;BME280;50130;52.150;5.236;2023-02-22T06:14:25;101078.0;;;7.1;97.8
48892;BME280;50130;52.150;5.236;2023-02-22T06:16:01;101076.0;;;7.2;97.93
48892;BME280;50130;52.150;5.236;2023-02-22T06:17:38;101075.0;;;7.1;97.95
48892;BME280;50130;52.150;5.236;2023-02-22T06:20:53;101078.0;;;7.04;97.78
48892;BME280;50130;52.150;5.236;2023-02-22T06:22:29;101080.0;;;7.19;97.46
48892;BME280;50130;52.150;5.236;2023-02-22T06:24:06;101080.0;;;7.16;97.31
48892;BME280;50130;52.150;5.236;2023-02-22T06:25:42;101076.0;;;7.1;97.89
48892;BME280;50130;52.150;5.236;2023-02-22T06:28:54;101082.0;;;7.04;98.17
48892;BME280;50130;52.150;5.236;2023-02-22T06:30:30;101081.0;;;7.03;98.16
48892;BME280;50130;52.150;5.236;2023-02-22T06:32:06;101082.0;;;7.11;97.82
48892;BME280;50130;52.150;5.236;2023-02-22T06:35:19;101080.0;;;7.04;98.44
48892;BME280;50130;52.150;5.236;2023-02-22T06:36:56;101078.0;;;7.04;98.71
48892;BME280;50130;52.150;5.236;2023-02-22T06:38:32;101080.0;;;7.02;98.46
48892;BME280;50130;52.150;5.236;2023-02-22T06:41:49;101076.0;;;7.04;98.52
48892;BME280;50130;52.150;5.236;2023-02-22T06:43:25;101071.0;;;6.95;98.97
48892;BME280;50130;52.150;5.236;2023-02-22T06:45:02;101070.0;;;6.97;98.96
48892;BME280;50130;52.150;5.236;2023-02-22T06:46:39;101065.0;;;7.06;98.79
48892;BME280;50130;52.150;5.236;2023-02-22T06:49:58;101064.0;;;6.9;99.66
48892;BME280;50130;52.150;5.236;2023-02-22T06:51:35;101062.0;;;6.99;99.3
48892;BME280;50130;52.150;5.236;2023-02-22T06:53:12;101062.0;;;6.95;99.62
48892;BME280;50130;52.150;5.236;2023-02-22T06:56:26;101065.0;;;6.96;99.99
48892;BME280;50130;52.150;5.236;2023-02-22T06:58:04;101060.0;;;7.07;99.14
48892;BME280;50130;52.150;5.236;2023-02-22T06:59:41;101056.0;;;7.0;99.43
48892;BME280;50130;52.150;5.236;2023-02-22T07:01:17;101057.0;;;7.0;99.44
48892;BME280;50130;52.150;5.236;2023-02-22T07:04:31;101055.0;;;7.03;99.48
48892;BME280;50130;52.150;5.236;2023-02-22T07:06:08;101062.0;;;7.05;99.08
48892;BME280;50130;52.150;5.236;2023-02-22T07:07:45;101057.0;;;7.0;99.46
48892;BME280;50130;52.150;5.236;2023-02-22T07:11:00;101061.0;;;6.97;100.0
48892;BME280;50130;52.150;5.236;2023-02-22T07:12:36;101057.0;;;7.0;100.0
48892;BME280;50130;52.150;5.236;2023-02-22T07:14:15;101055.0;;;7.07;100.0
48892;BME280;50130;52.150;5.236;2023-02-22T07:15:52;101058.0;;;7.06;100.0
48892;BME280;50130;52.150;5.236;2023-02-22T07:19:05;101062.0;;;7.1;100.0
48892;BME280;50130;52.150;5.236;2023-02-22T07:20:41;101061.0;;;7.21;99.71
48892;BME280;50130;52.150;5.236;2023-02-22T07:22:18;101063.0;;;7.16;100.0
48892;BME280;50130;52.150;5.236;2023-02-22T07:25:33;101062.0;;;7.16;100.0
48892;BME280;50130;52.150;5.236;2023-02-22T07:27:09;101062.0;;;7.29;99.32
48892;BME280;50130;52.150;5.236;2023-02-22T07:28:46;101058.0;;;7.19;99.7
48892;BME280;50130;52.150;5.236;2023-02-22T07:32:03;101060.0;;;7.14;100.0
48892;BME280;50130;52.150;5.236;2023-02-22T07:33:41;101066.0;;;7.34;99.1
48892;BME280;50130;52.150;5.236;2023-02-22T07:35:20;101063.0;;;7.26;99.37
48892;BME280;50130;52.150;5.236;2023-02-22T07:36:57;101062.0;;;7.31;99.22
48892;BME280;50130;52.150;5.236;2023-02-22T07:40:10;101063.0;;;7.26;99.48
48892;BME280;50130;52.150;5.236;2023-02-22T07:41:47;101072.0;;;7.47;98.75
48892;BME280;50130;52.150;5.236;2023-02-22T07:43:26;101071.0;;;7.35;99.04
48892;BME280;50130;52.150;5.236;2023-02-22T07:46:40;101074.0;;;7.47;98.46
48892;BME280;50130;52.150;5.236;2023-02-22T07:48:19;101075.0;;;7.44;98.61
48892;BME280;50130;52.150;5.236;2023-02-22T07:49:56;101076.0;;;7.33;99.25
48892;BME280;50130;52.150;5.236;2023-02-22T07:51:32;101076.0;;;7.43;99.17
48892;BME280;50130;52.150;5.236;2023-02-22T07:54:51;101085.0;;;7.47;98.72
48892;BME280;50130;52.150;5.236;2023-02-22T07:56:27;101088.0;;;7.52;98.67
48892;BME280;50130;52.150;5.236;2023-02-22T07:58:06;101084.0;;;7.54;98.69
48892;BME280;50130;52.150;5.236;2023-02-22T08:01:21;101086.0;;;7.45;99.2
48892;BME280;50130;52.150;5.236;2023-02-22T08:02:59;101084.0;;;7.41;99.28
48892;BME280;50130;52.150;5.236;2023-02-22T08:04:35;101077.0;;;7.44;99.47
48892;BME280;50130;52.150;5.236;2023-02-22T08:06:11;101080.0;;;7.37;99.75
48892;BME280;50130;52.150;5.236;2023-02-22T08:09:23;101084.0;;;7.57;98.78
48892;BME280;50130;52.150;5.236;2023-02-22T08:11:00;101088.0;;;7.5;98.73
48892;BME280;50130;52.150;5.236;2023-02-22T08:12:37;101088.0;;;7.69;98.26
48892;BME280;50130;52.150;5.236;2023-02-22T08:15:52;101088.0;;;7.64;98.39
48892;BME280;50130;52.150;5.236;2023-02-22T08:17:29;101083.0;;;7.63;98.36
48892;BME280;50130;52.150;5.236;2023-02-22T08:19:05;101090.0;;;7.6;97.75
48892;BME280;50130;52.150;5.236;2023-02-22T08:20:43;101094.0;;;7.68;97.63
48892;BME280;50130;52.150;5.236;2023-02-22T08:23:57;101086.0;;;7.63;97.91
48892;BME280;50130;52.150;5.236;2023-02-22T08:25:34;101083.0;;;7.64;97.52
48892;BME280;50130;52.150;5.236;2023-02-22T08:27:11;101078.0;;;7.59;97.52
48892;BME280;50130;52.150;5.236;2023-02-22T08:30:24;101075.0;;;7.57;97.67
48892;BME280;50130;52.150;5.236;2023-02-22T08:32:00;101074.0;;;7.62;97.26
48892;BME280;50130;52.150;5.236;2023-02-22T08:33:36;101075.0;;;7.51;98.12
48892;BME280;50130;52.150;5.236;2023-02-22T08:36:51;101075.0;;;7.57;98.17
48892;BME280;50130;52.150;5.236;2023-02-22T08:38:30;101082.0;;;7.78;97.74
48892;BME280;50130;52.150;5.236;2023-02-22T08:40:08;101080.0;;;7.84;97.4
48892;BME280;50130;52.150;5.236;2023-02-22T08:41:44;101083.0;;;7.73;97.46
48892;BME280;50130;52.150;5.236;2023-02-22T08:44:58;101080.0;;;7.72;98.03
48892;BME280;50130;52.150;5.236;2023-02-22T08:46:35;101081.0;;;7.77;97.63
48892;BME280;50130;52.150;5.236;2023-02-22T08:48:11;101080.0;;;7.73;97.83
48892;BME280;50130;52.150;5.236;2023-02-22T08:51:24;101074.0;;;7.74;97.56
48892;BME280;50130;52.150;5.236;2023-02-22T08:53:03;101075.0;;;7.88;97.9
48892;BME280;50130;52.150;5.236;2023-02-22T08:54:40;101066.0;;;7.96;97.37
48892;BME280;50130;52.150;5.236;2023-02-22T08:56:16;101058.0;;;8.07;96.75
48892;BME280;50130;52.150;5.236;2023-02-22T08:59:29;101050.0;;;7.99;96.58
48892;BME280;50130;52.150;5.236;2023-02-22T09:01:05;101048.0;;;7.87;96.45
48892;BME280;50130;52.150;5.236;2023-02-22T09:02:41;101045.0;;;7.88;97.39
48892;BME280;50130;52.150;5.236;2023-02-22T09:05:54;101047.0;;;7.88;96.86
48892;BME280;50130;52.150;5.236;2023-02-22T09:07:31;101048.0;;;8.1;96.57
48892;BME280;50130;52.150;5.236;2023-02-22T09:09:08;101052.0;;;8.11;96.87
48892;BME280;50130;52.150;5.236;2023-02-22T09:12:22;101058.0;;;8.14;96.38
48892;BME280;50130;52.150;5.236;2023-02-22T09:13:58;101057.0;;;8.16;95.84
48892;BME280;50130;52.150;5.236;2023-02-22T09:15:35;101049.0;;;8.3;95.81
48892;BME280;50130;52.150;5.236;2023-02-22T09:17:13;101060.0;;;8.24;95.71
48892;BME280;50130;52.150;5.236;2023-02-22T09:20:25;101048.0;;;8.26;95.55
48892;BME280;50130;52.150;5.236;2023-02-22T09:22:03;101047.0;;;8.28;95.97
48892;BME280;50130;52.150;5.236;2023-02-22T09:23:40;101049.0;;;8.3;95.62
48892;BME280;50130;52.150;5.236;2023-02-22T09:26:53;101044.0;;;8.35;95.21
48892;BME280;50130;52.150;5.236;2023-02-22T09:28:29;101041.0;;;8.56;95.11
48892;BME280;50130;52.150;5.236;2023-02-22T09:30:08;101034.0;;;8.43;95.72
48892;BME280;50130;52.150;5.236;2023-02-22T09:31:54;101034.0;;;8.34;96.65
48892;BME280;50130;52.150;5.236;2023-02-22T09:35:07;101030.0;;;8.39;96.85
48892;BME280;50130;52.150;5.236;2023-02-22T09:36:46;101031.0;;;8.33;96.17
48892;BME280;50130;52.150;5.236;2023-02-22T09:38:25;101025.0;;;8.35;95.9
48892;BME280;50130;52.150;5.236;2023-02-22T09:41:43;101020.0;;;8.45;95.78
48892;BME280;50130;52.150;5.236;2023-02-22T09:43:33;101016.0;;;8.42;95.91
48892;BME280;50130;52.150;5.236;2023-02-22T09:45:17;101012.0;;;8.44;95.88
48892;BME280;50130;52.150;5.236;2023-02-22T09:46:56;101007.0;;;8.5;96.09
48892;BME280;50130;52.150;5.236;2023-02-22T09:48:35;101012.0;;;8.64;95.25
48892;BME280;50130;52.150;5.236;2023-02-22T09:52:01;101010.0;;;8.74;94.81
48892;BME280;50130;52.150;5.236;2023-02-22T09:53:44;101003.0;;;8.84;94.53
48892;BME280;50130;52.150;5.236;2023-02-22T09:55:30;100998.0;;;8.82;95.11
48892;BME280;50130;52.150;5.236;2023-02-22T09:57:13;101005.0;;;9.03;94.5
48892;BME280;50130;52.150;5.236;2023-02-22T10:00:36;101001.0;;;9.14;94.81
48892;BME280;50130;52.150;5.236;2023-02-22T10:02:22;100999.0;;;9.33;94.06
48892;BME280;50130;52.150;5.236;2023-02-22T10:04:05;100994.0;;;9.27;93.72
48892;BME280;50130;52.150;5.236;2023-02-22T10:05:51;100995.0;;;9.31;92.9
48892;BME280;50130;52.150;5.236;2023-02-22T10:07:32;100997.0;;;9.36;92.24
48892;BME280;50130;52.150;5.236;2023-02-22T10:10:54;100998.0;;;9.33;91.72
48892;BME280;50130;52.150;5.236;2023-02-22T10:12:55;100996.0;;;9.44;91.53
48892;BME280;50130;52.150;5.236;2023-02-22T10:14:49;101000.0;;;9.44;91.29
48892;BME280;50130;52.150;5.236;2023-02-22T10:16:34;101006.0;;;9.56;91.12
48892;BME280;50130;52.150;5.236;2023-02-22T10:18:43;101007.0;;;9.68;91.19
48892;BME280;50130;52.150;5.236;2023-02-22T10:20:46;101002.0;;;9.73;91.39
48892;BME280;50130;52.150;5.236;2023-02-22T10:22:38;101005.0;;;9.68;91.1
48892;BME280;50130;52.150;5.236;2023-02-22T10:24:30;101003.0;;;9.8;91.16
48892;BME280;50130;52.150;5.236;2023-02-22T10:27:55;101003.0;;;9.73;91.12
48892;BME280;50130;52.150;5.236;2023-02-22T10:29:37;100998.0;;;9.81;89.69
48892;BME280;50130;52.150;5.236;2023-02-22T10:31:19;100998.0;;;9.89;89.84
48892;BME280;50130;52.150;5.236;2023-02-22T10:33:03;101001.0;;;9.98;89.45
48892;BME280;50130;52.150;5.236;2023-02-22T10:34:47;101002.0;;;9.92;89.02
48892;BME280;50130;52.150;5.236;2023-02-22T10:38:12;101001.0;;;9.98;88.87
48892;BME280;50130;52.150;5.236;2023-02-22T10:39:55;101000.0;;;10.07;88.74
48892;BME280;50130;52.150;5.236;2023-02-22T10:41:41;101000.0;;;10.14;88.22
48892;BME280;50130;52.150;5.236;2023-02-22T10:43:22;101003.0;;;10.23;87.86
48892;BME280;50130;52.150;5.236;2023-02-22T10:44:59;101005.0;;;10.35;88.12
48892;BME280;50130;52.150;5.236;2023-02-22T10:48:15;101007.0;;;10.34;87.21
48892;BME280;50130;52.150;5.236;2023-02-22T10:49:56;101003.0;;;10.42;86.43
48892;BME280;50130;52.150;5.236;2023-02-22T10:51:34;101000.0;;;10.37;86.22
48892;BME280;50130;52.150;5.236;2023-02-22T10:54:49;100996.0;;;10.29;86.4
48892;BME280;50130;52.150;5.236;2023-02-22T10:56:29;100997.0;;;10.34;86.6
48892;BME280;50130;52.150;5.236;2023-02-22T10:58:07;100991.0;;;10.46;85.52
48892;BME280;50130;52.150;5.236;2023-02-22T10:59:44;100982.0;;;10.44;85.34
48892;BME280;50130;52.150;5.236;2023-02-22T11:03:05;100987.0;;;10.47;85.5
48892;BME280;50130;52.150;5.236;2023-02-22T11:04:52;100985.0;;;10.46;84.23
48892;BME280;50130;52.150;5.236;2023-02-22T11:06:31;100986.0;;;10.38;84.24
48892;BME280;50130;52.150;5.236;2023-02-22T11:08:21;100983.0;;;10.53;85.01
48892;BME280;50130;52.150;5.236;2023-02-22T11:11:41;100986.0;;;10.54;85.68
48892;BME280;50130;52.150;5.236;2023-02-22T11:13:23;100985.0;;;10.67;84.41
48892;BME280;50130;52.150;5.236;2023-02-22T11:15:26;100983.0;;;10.73;84.29
48892;BME280;50130;52.150;5.236;2023-02-22T11:17:06;100980.0;;;10.65;83.78